Time;durP1;ratioP1;P1;durP2;ratioP2;P2;SDS_P1;SDS_P2;PMS_P1;PMS_P2;Temp;Humidity;BMP_temperature;BMP_pressure;BME280_temperature;BME280_humidity;BME280_pressure;Samples;Min_cycle;Max_cycle;Signal;HPM_P1;HPM_P2
2024/01/28 00:02:29;;;;;;;0.05;0.05;;;;;;;1.78;73.48;103131.06;15772773;28;20036;-51
2024/01/28 00:10:05;;;;;;;1.95;0.30;;;;;;;1.83;72.49;103121.03;15743687;28;20485;-44
2024/01/28 00:17:38;;;;;;;0.00;0.00;;;;;;;1.63;72.85;103116.97;15796036;28;20040;-44
2024/01/28 00:25:13;;;;;;;6.45;1.23;;;;;;;1.49;73.57;103128.41;15777591;28;20036;-50
2024/01/28 00:32:46;;;;;;;0.00;0.00;;;;;;;1.38;73.03;103120.22;15801086;28;20048;-44
2024/01/28 00:40:21;;;;;;;;;;;;;;;1.27;73.34;103133.25;15794830;28;20028;-48
2024/01/28 00:47:54;;;;;;;0.15;0.15;;;;;;;1.12;74.44;103136.78;15758145;28;20027;-51
2024/01/28 00:55:31;;;;;;;;;;;;;;;1.30;73.92;103132.22;15793699;28;20071;-50
2024/01/28 01:03:05;;;;;;;0.05;0.05;;;;;;;1.35;73.85;103141.56;15785296;28;19920;-46
2024/01/28 01:10:42;;;;;;;0.75;0.40;;;;;;;1.24;73.88;103118.41;15741354;28;20087;-46
2024/01/28 01:18:15;;;;;;;0.00;0.00;;;;;;;1.40;73.98;103130.72;15788475;28;20138;-51
2024/01/28 01:25:51;;;;;;;0.00;0.00;;;;;;;1.20;73.70;103123.97;15792253;28;20040;-48
2024/01/28 01:33:25;;;;;;;0.10;0.10;;;;;;;1.05;73.70;103130.16;15782398;28;20132;-47
2024/01/28 01:41:01;;;;;;;1.17;0.88;;;;;;;0.97;73.93;103125.31;15776875;28;20135;-52
2024/01/28 01:48:35;;;;;;;0.88;0.63;;;;;;;0.93;73.32;103135.22;15751014;28;20072;-48
2024/01/28 01:56:12;;;;;;;0.05;0.05;;;;;;;0.86;74.76;103131.22;15762288;28;20068;-46
2024/01/28 02:03:47;;;;;;;0.28;0.28;;;;;;;1.00;75.36;103133.06;15734326;28;20048;-48
2024/01/28 02:11:23;;;;;;;0.10;0.10;;;;;;;0.83;74.51;103141.97;15753319;28;20036;-49
2024/01/28 02:18:56;;;;;;;0.00;0.00;;;;;;;0.67;76.38;103120.84;15802169;28;20048;-43
2024/01/28 02:26:32;;;;;;;0.52;0.52;;;;;;;0.83;74.95;103134.03;15788997;28;20048;-43
2024/01/28 02:34:05;;;;;;;0.20;0.20;;;;;;;0.70;74.75;103133.03;15788860;28;20051;-43
2024/01/28 02:41:40;;;;;;;0.00;0.00;;;;;;;0.43;75.81;103120.44;15778259;28;20047;-45
2024/01/28 02:49:14;;;;;;;0.38;0.38;;;;;;;0.58;74.09;103108.16;15783690;28;20040;-47
2024/01/28 02:56:49;;;;;;;0.00;0.00;;;;;;;0.63;74.73;103114.03;15782960;28;20458;-45
2024/01/28 03:04:22;;;;;;;0.00;0.00;;;;;;;0.28;74.87;103113.38;15780314;28;20070;-49
2024/01/28 03:11:57;;;;;;;0.10;0.10;;;;;;;0.12;76.71;103117.78;15794304;28;20556;-51
2024/01/28 03:19:33;;;;;;;0.10;0.10;;;;;;;0.44;75.77;103108.94;15799688;28;20150;-53
2024/01/28 03:27:08;;;;;;;0.00;0.00;;;;;;;0.45;76.08;103101.84;15782072;28;20060;-43
2024/01/28 03:34:42;;;;;;;0.10;0.10;;;;;;;0.12;77.62;103112.50;15795627;28;20036;-47
2024/01/28 03:42:18;;;;;;;0.47;0.47;;;;;;;0.40;75.33;103111.81;15785679;28;20469;-44
2024/01/28 03:49:53;;;;;;;0.00;0.00;;;;;;;0.24;77.14;103109.19;15781613;28;20066;-48
2024/01/28 03:57:29;;;;;;;0.00;0.00;;;;;;;0.45;75.51;103105.34;15797496;28;20051;-44
2024/01/28 04:05:03;;;;;;;0.05;0.05;;;;;;;0.36;76.16;103103.22;15796689;28;20123;-47
2024/01/28 04:12:39;;;;;;;0.00;0.00;;;;;;;-0.17;78.87;103107.00;15791767;28;20048;-47
2024/01/28 04:20:13;;;;;;;3.85;0.85;;;;;;;0.32;76.54;103101.69;15793091;28;20056;-47
2024/01/28 04:27:48;;;;;;;0.00;0.00;;;;;;;0.01;78.35;103109.59;15797067;28;20060;-49
2024/01/28 04:35:22;;;;;;;0.30;0.30;;;;;;;0.08;78.27;103103.88;15743378;28;20048;-48
2024/01/28 04:42:59;;;;;;;0.00;0.00;;;;;;;-0.08;78.33;103103.03;15790866;28;20055;-51
2024/01/28 04:50:35;;;;;;;0.00;0.00;;;;;;;0.13;76.85;103099.19;15740829;28;20500;-44
2024/01/28 04:58:10;;;;;;;0.00;0.00;;;;;;;0.09;75.99;103102.94;15791362;28;20052;-45
2024/01/28 05:05:43;;;;;;;0.05;0.05;;;;;;;0.04;77.02;103123.47;15805363;28;20115;-46
2024/01/28 05:13:18;;;;;;;0.03;0.03;;;;;;;-0.07;77.31;103126.69;15775872;28;20036;-45
2024/01/28 05:20:52;;;;;;;0.55;0.55;;;;;;;-0.17;77.43;103132.56;15775104;28;20449;-43
2024/01/28 05:28:27;;;;;;;0.00;0.00;;;;;;;-0.08;77.03;103140.84;15792317;28;20569;-44
2024/01/28 05:36:02;;;;;;;0.13;0.13;;;;;;;-0.03;76.00;103143.22;15791398;28;20043;-46
2024/01/28 05:43:39;;;;;;;0.00;0.00;;;;;;;-0.33;77.20;103137.75;15764530;28;20040;-43
2024/01/28 05:51:13;;;;;;;0.52;0.52;;;;;;;-0.33;77.52;103140.41;15792256;28;20063;-44
2024/01/28 05:58:48;;;;;;;0.25;0.25;;;;;;;-0.35;78.21;103126.44;15786193;28;20060;-47
2024/01/28 06:06:22;;;;;;;0.22;0.22;;;;;;;-0.18;77.41;103139.63;15755310;28;20090;-43
2024/01/28 06:13:57;;;;;;;0.10;0.10;;;;;;;-0.15;76.66;103139.44;15742943;28;20117;-52
2024/01/28 06:21:31;;;;;;;0.00;0.00;;;;;;;-0.11;76.62;103148.91;15775893;28;20036;-45
2024/01/28 06:29:09;;;;;;;0.10;0.10;;;;;;;-0.21;74.65;103147.69;15755176;28;20407;-46
2024/01/28 06:36:43;;;;;;;0.30;0.30;;;;;;;-0.40;74.58;103147.81;15788448;28;20051;-44
2024/01/28 06:44:17;;;;;;;0.73;0.73;;;;;;;-0.61;75.52;103135.69;15789430;28;20072;-46
2024/01/28 06:51:51;;;;;;;0.10;0.10;;;;;;;-0.44;75.06;103156.81;15737953;28;20040;-45
2024/01/28 06:59:26;;;;;;;1.30;0.65;;;;;;;-0.62;77.13;103155.09;15782051;28;20040;-47
2024/01/28 07:07:03;;;;;;;0.00;0.00;;;;;;;-0.59;77.96;103163.72;15764790;28;20103;-49
2024/01/28 07:14:38;;;;;;;5.15;2.85;;;;;;;-0.36;76.69;103140.59;15796037;28;20101;-46
2024/01/28 07:22:12;;;;;;;0.10;0.10;;;;;;;-0.26;76.54;103128.59;15740864;22;20292;-47
2024/01/28 07:29:47;;;;;;;0.60;0.55;;;;;;;-0.14;76.73;103132.38;15747679;28;20048;-51
2024/01/28 07:37:21;;;;;;;0.57;0.57;;;;;;;-0.81;79.87;103103.28;15760157;28;20072;-50
2024/01/28 07:44:56;;;;;;;0.00;0.00;;;;;;;-0.35;78.89;103126.44;15802298;28;20052;-50
2024/01/28 07:52:33;;;;;;;1.65;1.00;;;;;;;0.45;77.41;103130.91;15761003;28;20124;-49
2024/01/28 08:00:10;;;;;;;0.00;0.00;;;;;;;1.09;74.02;103126.41;15726378;28;20409;-51
2024/01/28 08:07:47;;;;;;;0.00;0.00;;;;;;;1.18;74.40;103139.09;15782347;28;20048;-48
2024/01/28 08:15:22;;;;;;;0.25;0.25;;;;;;;0.61;75.91;103136.22;15772895;28;20052;-49
2024/01/28 08:22:55;;;;;;;0.90;0.65;;;;;;;0.94;76.12;103138.72;15763544;28;20044;-51
2024/01/28 08:30:30;;;;;;;0.63;0.63;;;;;;;0.71;77.87;103129.47;15787323;28;20045;-51
2024/01/28 08:38:06;;;;;;;0.32;0.32;;;;;;;1.45;76.21;103131.31;15730710;28;20142;-51
2024/01/28 08:45:43;;;;;;;0.15;0.15;;;;;;;1.89;74.87;103122.44;15747518;28;20592;-52
2024/01/28 08:53:16;;;;;;;0.73;0.45;;;;;;;3.39;71.21;103157.78;15751347;28;20059;-53
2024/01/28 09:00:51;;;;;;;;;;;;;;;3.41;70.81;103153.25;15746376;28;20188;-54
2024/01/28 09:08:30;;;;;;;0.80;0.70;;;;;;;3.48;69.51;103131.47;15798716;28;19920;-60
2024/01/28 09:16:06;;;;;;;0.10;0.10;;;;;;;3.98;67.95;103142.22;15801936;28;20633;-52
2024/01/28 09:23:39;;;;;;;0.00;0.00;;;;;;;5.28;64.13;103151.31;15743679;28;20045;-52
2024/01/28 09:31:14;;;;;;;0.43;0.43;;;;;;;4.95;64.00;103128.94;15759809;28;20114;-51
2024/01/28 09:38:48;;;;;;;0.10;0.10;;;;;;;6.05;62.04;103151.56;15717893;28;20044;-50
2024/01/28 09:46:25;;;;;;;;;;;;;;;6.11;61.32;103165.28;15733537;28;20578;-50
2024/01/28 09:53:59;;;;;;;0.10;0.10;;;;;;;6.43;62.01;103147.66;15796931;28;20373;-50
2024/01/28 10:01:34;;;;;;;;;;;;;;;7.76;57.88;103141.88;15796645;28;20044;-52
2024/01/28 10:09:07;;;;;;;0.43;0.43;;;;;;;8.17;56.27;103120.38;15795294;28;20005;-52
2024/01/28 10:16:44;;;;;;;0.00;0.00;;;;;;;7.91;56.09;103111.09;15794959;28;20449;-52
2024/01/28 10:24:18;;;;;;;2.80;1.95;;;;;;;7.54;55.68;103079.56;15777237;28;20516;-52
2024/01/28 10:31:53;;;;;;;0.00;0.00;;;;;;;8.05;57.12;103117.91;15795153;28;20100;-50
2024/01/28 10:39:34;;;;;;;0.00;0.00;;;;;;;8.85;53.31;103107.13;15793014;28;20036;-52
2024/01/28 10:47:13;;;;;;;0.00;0.00;;;;;;;8.73;52.51;103102.91;15771075;28;20036;-51
2024/01/28 10:54:47;;;;;;;5.05;0.55;;;;;;;8.71;52.76;103091.47;15731206;28;20041;-50
2024/01/28 11:02:22;;;;;;;0.05;0.05;;;;;;;8.70;52.97;103084.44;15731318;28;20052;-50
2024/01/28 11:09:59;;;;;;;0.00;0.00;;;;;;;8.50;53.76;103069.34;15786157;28;20438;-52
2024/01/28 11:17:34;;;;;;;0.35;0.35;;;;;;;8.05;54.21;103059.06;15793535;28;20050;-51
2024/01/28 11:25:10;;;;;;;0.10;0.10;;;;;;;8.78;53.54;103057.78;15796624;28;20039;-51
2024/01/28 11:32:45;;;;;;;0.10;0.10;;;;;;;8.95;52.55;103040.16;15804598;28;20063;-52
2024/01/28 11:40:23;;;;;;;0.00;0.00;;;;;;;10.57;48.69;103032.50;15811908;28;20063;-53
2024/01/28 11:48:05;;;;;;;0.00;0.00;;;;;;;10.45;47.92;103034.59;15779303;28;20048;-52
2024/01/28 11:55:39;;;;;;;0.15;0.15;;;;;;;10.84;46.17;103030.72;15747368;28;20049;-52
2024/01/28 12:03:14;;;;;;;0.00;0.00;;;;;;;10.98;46.66;103014.03;15751113;28;20489;-51
2024/01/28 12:10:57;;;;;;;0.50;0.50;;;;;;;11.30;45.85;102997.28;15807040;28;20488;-53
2024/01/28 12:18:32;;;;;;;0.00;0.00;;;;;;;12.25;43.88;102997.97;15806342;28;20423;-53
2024/01/28 12:26:06;;;;;;;1.75;0.93;;;;;;;13.22;42.23;102991.72;15786161;28;20048;-52
2024/01/28 12:33:41;;;;;;;0.00;0.00;;;;;;;13.14;41.60;102977.38;15804786;28;20044;-54
2024/01/28 12:41:15;;;;;;;0.08;0.08;;;;;;;12.06;43.78;102969.50;15803672;28;20043;-52
2024/01/28 12:48:51;;;;;;;0.00;0.00;;;;;;;12.63;42.61;102949.84;15762681;28;20047;-54
2024/01/28 12:56:25;;;;;;;0.00;0.00;;;;;;;14.02;39.97;102942.09;15741684;28;20047;-53
2024/01/28 13:04:00;;;;;;;0.00;0.00;;;;;;;12.69;40.85;102941.94;15754956;28;20093;-52
2024/01/28 13:11:34;;;;;;;0.00;0.00;;;;;;;13.57;38.40;102929.38;15803190;28;20040;-52
2024/01/28 13:19:08;;;;;;;0.00;0.00;;;;;;;12.86;39.73;102931.09;15800869;28;20048;-52
2024/01/28 13:26:44;;;;;;;0.00;0.00;;;;;;;11.91;42.12;102923.56;15748997;22;20048;-52
2024/01/28 13:34:19;;;;;;;0.00;0.00;;;;;;;11.38;42.71;102915.81;15714446;28;20028;-51
2024/01/28 13:41:52;;;;;;;0.00;0.00;;;;;;;10.42;46.12;102907.84;15712125;28;20044;-50
2024/01/28 13:49:27;;;;;;;0.00;0.00;;;;;;;10.70;47.65;102890.59;15726466;28;20290;-51
2024/01/28 13:57:01;;;;;;;0.63;0.22;;;;;;;10.56;47.56;102882.28;15710097;28;20045;-54
2024/01/28 14:04:38;;;;;;;0.00;0.00;;;;;;;10.18;46.66;102870.91;15707535;28;20135;-55
2024/01/28 14:12:12;;;;;;;0.45;0.45;;;;;;;10.83;45.54;102859.78;15709378;28;20052;-53
2024/01/28 14:19:49;;;;;;;0.00;0.00;;;;;;;9.66;47.05;102858.19;15729840;28;20064;-54
2024/01/28 14:27:24;;;;;;;1.55;1.15;;;;;;;9.19;48.88;102861.03;15710742;28;20044;-56
2024/01/28 14:34:59;;;;;;;0.10;0.10;;;;;;;8.81;48.73;102845.09;15729509;28;20052;-55
2024/01/28 14:42:37;;;;;;;0.63;0.55;;;;;;;8.84;49.16;102852.84;15728789;28;20110;-54
2024/01/28 14:50:11;;;;;;;;;;;;;;;8.64;49.67;102860.13;15709400;28;20465;-55
2024/01/28 14:57:45;;;;;;;0.00;0.00;;;;;;;8.38;50.32;102854.53;15723168;28;20032;-55
2024/01/28 15:05:20;;;;;;;0.00;0.00;;;;;;;8.37;50.26;102848.34;15726790;28;20072;-50
2024/01/28 15:12:54;;;;;;;0.05;0.05;;;;;;;8.12;50.43;102844.41;15676944;28;20037;-54
2024/01/28 15:20:28;;;;;;;;;;;;;;;7.76;52.34;102855.81;15677850;28;20470;-52
2024/01/28 15:28:02;;;;;;;0.00;0.00;;;;;;;7.40;51.99;102845.63;15677613;28;19921;-51
2024/01/28 15:35:38;;;;;;;0.00;0.00;;;;;;;7.27;52.89;102844.19;15679678;28;20404;-53
2024/01/28 15:43:12;;;;;;;0.05;0.05;;;;;;;6.97;54.01;102839.75;15737892;28;20036;-53
2024/01/28 15:50:47;;;;;;;0.10;0.03;;;;;;;7.03;54.04;102853.38;15666527;28;20502;-50
2024/01/28 15:58:21;;;;;;;0.20;0.20;;;;;;;6.71;54.96;102856.19;15674818;28;20117;-53
2024/01/28 16:05:59;;;;;;;0.00;0.00;;;;;;;6.72;53.50;102851.75;15728825;28;20044;-54
2024/01/28 16:13:33;;;;;;;0.08;0.08;;;;;;;6.96;53.36;102864.75;15734313;28;20095;-49
2024/01/28 16:21:09;;;;;;;0.20;0.20;;;;;;;6.94;53.96;102864.88;15732093;28;20040;-52
2024/01/28 16:28:44;;;;;;;3.45;1.33;;;;;;;6.53;54.71;102858.66;15733273;28;20397;-50
2024/01/28 16:36:20;;;;;;;0.00;0.00;;;;;;;6.46;55.07;102852.13;15731644;28;20287;-54
2024/01/28 16:43:53;;;;;;;0.00;0.00;;;;;;;6.44;55.22;102847.94;15729887;28;20044;-50
2024/01/28 16:51:28;;;;;;;0.08;0.08;;;;;;;5.80;56.44;102855.00;15729254;28;20125;-49
2024/01/28 16:59:03;;;;;;;0.00;0.00;;;;;;;5.73;57.00;102852.94;15731343;28;20193;-51
2024/01/28 17:06:38;;;;;;;0.00;0.00;;;;;;;4.80;60.45;102856.88;15715231;28;20452;-52
2024/01/28 17:14:13;;;;;;;1.55;1.42;;;;;;;5.15;59.86;102863.88;15732891;28;20048;-54
2024/01/28 17:21:51;;;;;;;0.38;0.38;;;;;;;5.52;59.35;102867.06;15733435;28;20057;-51
2024/01/28 17:29:25;;;;;;;0.00;0.00;;;;;;;4.90;61.95;102864.97;15714070;28;20068;-49
2024/01/28 17:37:01;;;;;;;0.00;0.00;;;;;;;5.10;60.86;102858.06;15730711;28;20485;-55
2024/01/28 17:44:36;;;;;;;0.00;0.00;;;;;;;5.14;61.25;102848.88;15726328;28;20416;-53
2024/01/28 17:52:11;;;;;;;0.32;0.32;;;;;;;4.87;62.24;102849.25;15729990;28;20064;-54
2024/01/28 17:59:45;;;;;;;0.63;0.45;;;;;;;4.76;62.11;102842.13;15727103;28;20143;-49
2024/01/28 18:07:20;;;;;;;0.65;0.65;;;;;;;4.24;64.82;102837.31;15728793;28;20025;-54
2024/01/28 18:14:54;;;;;;;0.68;0.25;;;;;;;4.86;63.11;102832.44;15712038;28;20127;-53
2024/01/28 18:22:29;;;;;;;0.00;0.00;;;;;;;4.38;64.39;102825.59;15710073;28;20036;-53
2024/01/28 18:30:07;;;;;;;0.08;0.08;;;;;;;4.34;64.17;102817.88;15724351;28;20413;-47
2024/01/28 18:37:42;;;;;;;0.00;0.00;;;;;;;5.01;61.88;102827.69;15709688;28;20071;-50
2024/01/28 18:45:16;;;;;;;0.43;0.38;;;;;;;4.21;64.79;102813.63;15727157;28;20272;-51
2024/01/28 18:52:51;;;;;;;0.28;0.25;;;;;;;4.51;63.89;102807.75;15709272;28;20063;-50
2024/01/28 19:00:24;;;;;;;0.20;0.20;;;;;;;3.92;65.85;102792.78;15723718;28;20365;-52
2024/01/28 19:07:59;;;;;;;0.75;0.75;;;;;;;3.86;66.03;102798.53;15726159;28;20121;-50
2024/01/28 19:15:32;;;;;;;0.20;0.20;;;;;;;3.77;66.44;102800.06;15724622;28;20094;-50
2024/01/28 19:23:08;;;;;;;;;;;;;;;3.18;68.73;102788.59;15725827;28;20390;-49
2024/01/28 19:30:41;;;;;;;0.10;0.10;;;;;;;3.22;67.78;102790.91;15704401;28;19931;-45
2024/01/28 19:38:17;;;;;;;0.00;0.00;;;;;;;3.23;67.82;102774.03;15704944;28;20032;-47
2024/01/28 19:45:51;;;;;;;0.00;0.00;;;;;;;3.62;66.95;102766.72;15708686;28;20068;-44
2024/01/28 19:53:25;;;;;;;0.00;0.00;;;;;;;3.08;68.43;102759.22;15692353;28;20041;-52
2024/01/28 20:00:59;;;;;;;0.00;0.00;;;;;;;3.03;68.61;102758.69;15674982;28;20064;-47
2024/01/28 20:08:36;;;;;;;0.10;0.10;;;;;;;2.95;68.73;102740.69;15716422;28;20076;-50
2024/01/28 20:16:10;;;;;;;0.45;0.45;;;;;;;3.28;67.36;102737.38;15702518;28;20090;-44
2024/01/28 20:23:45;;;;;;;0.05;0.05;;;;;;;3.02;68.27;102731.31;15431836;28;7688361;-49
2024/01/28 20:31:20;;;;;;;1.65;1.55;;;;;;;3.38;66.70;102740.19;15714035;28;20101;-46
2024/01/28 20:38:55;;;;;;;0.00;0.00;;;;;;;3.48;65.66;102743.84;15675590;28;20048;-44
2024/01/28 20:46:28;;;;;;;0.90;0.75;;;;;;;3.82;64.28;102747.47;15663415;28;20450;-48
2024/01/28 20:54:05;;;;;;;0.08;0.08;;;;;;;3.79;64.10;102757.50;15713900;28;20106;-47
2024/01/28 21:01:39;;;;;;;0.00;0.00;;;;;;;3.64;63.91;102748.88;15674684;28;20056;-49
2024/01/28 21:09:14;;;;;;;0.10;0.10;;;;;;;3.24;64.47;102753.63;15724253;28;20051;-48
2024/01/28 21:16:48;;;;;;;0.52;0.52;;;;;;;2.84;65.94;102747.72;15691875;28;20044;-49
2024/01/28 21:24:24;;;;;;;0.55;0.55;;;;;;;2.42;67.09;102745.34;15668653;28;20071;-46
2024/01/28 21:32:00;;;;;;;0.35;0.35;;;;;;;2.89;64.87;102741.16;15700898;28;20233;-49
2024/01/28 21:39:35;;;;;;;1.35;1.13;;;;;;;2.87;65.22;102740.38;15694116;28;20127;-50
2024/01/28 21:47:09;;;;;;;0.10;0.10;;;;;;;2.44;67.55;102740.81;15690480;28;20044;-46
2024/01/28 21:54:44;;;;;;;0.95;0.88;;;;;;;3.07;64.89;102733.63;15724250;28;20622;-48
2024/01/28 22:02:32;;;;;;;2.20;1.45;;;;;;;2.69;65.64;102720.50;15724299;28;20128;-45
2024/01/28 22:10:10;;;;;;;0.10;0.10;;;;;;;2.41;65.72;102719.81;15706727;28;20098;-51
2024/01/28 22:17:44;;;;;;;0.10;0.10;;;;;;;2.53;64.48;102716.31;15692334;28;20052;-48
2024/01/28 22:25:19;;;;;;;;;;;;;;;2.66;63.33;102705.69;15727408;28;20048;-46
2024/01/28 22:32:52;;;;;;;0.00;0.00;;;;;;;2.96;62.50;102694.63;15710317;28;19927;-47
2024/01/28 22:40:28;;;;;;;0.10;0.10;;;;;;;2.74;63.02;102679.44;15674724;28;20103;-51
2024/01/28 22:48:03;;;;;;;0.13;0.13;;;;;;;2.76;63.26;102685.50;15671549;28;20033;-47
2024/01/28 22:55:37;;;;;;;0.03;0.03;;;;;;;2.54;64.29;102672.09;15646982;28;20045;-48
2024/01/28 23:03:11;;;;;;;0.00;0.00;;;;;;;2.75;61.37;102680.28;15689573;28;20045;-47
2024/01/28 23:10:46;;;;;;;0.40;0.40;;;;;;;2.98;60.61;102684.75;15709712;28;20116;-48
2024/01/28 23:18:27;;;;;;;0.10;0.10;;;;;;;3.12;59.98;102681.06;15727233;28;20044;-48
2024/01/28 23:26:03;;;;;;;1.17;1.10;;;;;;;3.48;58.77;102693.41;15677340;28;20040;-51
2024/01/28 23:33:38;;;;;;;0.32;0.32;;;;;;;3.31;59.59;102685.84;15698588;28;20041;-51
2024/01/28 23:41:13;;;;;;;0.10;0.10;;;;;;;2.67;61.20;102682.66;15732815;28;20040;-49
2024/01/28 23:48:46;;;;;;;0.10;0.10;;;;;;;2.57;61.49;102671.88;15732606;28;20053;-51
2024/01/28 23:56:21;;;;;;;0.10;0.10;;;;;;;2.41;62.09;102668.59;15732500;28;20182;-47
